UKKK/IEV METAR and TAF weather

Enter ICAO airport designator
Station Type Date Time Source
UKKK METAR 2019/08/24 20:30 UTC NOAA

UKKK 242030Z 03003MPS CAVOK 19/09 Q1025 R08/CLRD70 NOSIG


Station Type Date Time Source
UKKK Decoded METAR 2019/08/24 20:30 UTC NOAA

Station name not available
Aug 24, 2019 - 04:30 PM EDT / 2019.08.24 2030 UTC
Wind: from the NNE (030 degrees) at 7 MPH (6 KT):0
Visibility: greater than 7 mile(s):0
Temperature: 66 F (19 C)
Dew Point: 48 F (9 C)
Relative Humidity: 52%
Pressure (altimeter): 30.27 in. Hg (1025 hPa)
ob: UKKK 242030Z 03003MPS CAVOK 19/09 Q1025 R08/CLRD70 NOSIG
cycle: 20

Station Type Date Time Source
UKKK TAF 2019/08/24 18:12 UTC NOAA

TAF TAF UKKK 241702Z 2418/2518 03004G09MPS 9999 SCT030 TX28/2512Z TN14/2503Z
TEMPO 2421/2505 2000 BR SCT005

Example: see airport list